M I D A S
Marine Information and Data Acquisition System
Tripno 2035 of the Zeeleeuw from 2011-01-20 09:15:52 to 2011-01-20 16:41:53
Back to CruiseResearch ActivitiesStationsMapUnderway DataData graphs

EquipmentUnitsComment
TimeDGPSUTC
LatitudeDGPSDM.mWGS84
LongitudeDGPSDM.mWGS84
HeadingGyrodeg 
SOGDGPSknotsSpeed over ground
COGDGPSdegCourse over ground
DepthEcho soundermeters200 kHz
Missing or incorrect values are displayed as -999
Navigation data collected by the RV Zeeleeuw from 2011-01-20 09:16:14 to 2011-01-20 16:46:21
                                                                                    Next 1000 lines
Time Latitude Longitude Heading SOG COG Depth
2011-01-20 09:16:24 51°13.661 2°55.957 106.3 1 292 6.9
2011-01-20 09:16:30 51°13.662 2°55.953 106.1 1.3 292 6.9
2011-01-20 09:16:34 51°13.663 2°55.95 106 1.8 292 6.9
2011-01-20 09:16:40 51°13.664 2°55.945 105.8 2.1 291 7.1
2011-01-20 09:16:46 51°13.666 2°55.939 105.6 2.5 291 -999
2011-01-20 09:16:52 51°13.667 2°55.932 105.3 2.8 290 -999
2011-01-20 09:16:58 51°13.669 2°55.924 105.1 3.1 289 -999
2011-01-20 09:17:02 51°13.67 2°55.918 104.7 3.3 289 -999
2011-01-20 09:17:08 51°13.672 2°55.909 104.6 3.6 287 -999
2011-01-20 09:17:14 51°13.674 2°55.9 104.2 3.8 287 -999
2011-01-20 09:17:18 51°13.675 2°55.893 104 4 287 -999
2011-01-20 09:17:24 51°13.677 2°55.883 103.9 4.1 287 -999
2011-01-20 09:17:28 51°13.679 2°55.875 103.7 4.2 286 -999
2011-01-20 09:17:34 51°13.68 2°55.865 103.1 4.2 287 -999
2011-01-20 09:17:38 51°13.682 2°55.858 102.4 4.1 286 -999
2011-01-20 09:17:44 51°13.683 2°55.847 101.7 4 286 -999
2011-01-20 09:17:48 51°13.684 2°55.841 101 3.9 285 -999
2011-01-20 09:17:54 51°13.686 2°55.831 100.2 3.8 284 -999
2011-01-20 09:17:58 51°13.687 2°55.825 99.1 3.7 283 -999
2011-01-20 09:18:04 51°13.688 2°55.816 97.8 3.6 282 -999
2011-01-20 09:18:08 51°13.689 2°55.809 96.3 3.5 280 -999
2011-01-20 09:18:14 51°13.69 2°55.8 94.6 3.4 279 -999
2011-01-20 09:18:18 51°13.69 2°55.794 93.3 3.4 278 -999
2011-01-20 09:18:24 51°13.691 2°55.786 91.5 3.3 276 4.9
2011-01-20 09:18:29 51°13.691 2°55.779 89.7 3.2 274 -999
2011-01-20 09:18:34 51°13.691 2°55.772 88.3 3.2 272 -999
2011-01-20 09:18:38 51°13.691 2°55.766 86.9 3.1 271 -999
2011-01-20 09:18:44 51°13.691 2°55.758 85.7 3 270 4.8
2011-01-20 09:18:49 51°13.691 2°55.752 84.2 2.9 268 -999
2011-01-20 09:18:54 51°13.691 2°55.746 83.2 2.7 269 -999
2011-01-20 09:18:58 51°13.691 2°55.743 82.5 2 268 -999
2011-01-20 09:19:04 51°13.691 2°55.74 81.5 1.3 269 -999
2011-01-20 09:19:08 51°13.691 2°55.738 78.5 0.8 274 -999
2011-01-20 09:19:14 51°13.691 2°55.737 73.9 0.5 281 -999
2011-01-20 09:19:18 51°13.691 2°55.737 70.3 0.3 298 -999
2011-01-20 09:19:24 51°13.691 2°55.736 67.1 0.3 325 -999
2011-01-20 09:19:29 51°13.692 2°55.736 64 0.3 354 -999
2011-01-20 09:19:34 51°13.692 2°55.737 60.9 0.4 14 -999
2011-01-20 09:19:38 51°13.693 2°55.737 57.7 0.5 13 -999
2011-01-20 09:19:44 51°13.694 2°55.737 54.8 0.6 21 -999
2011-01-20 09:19:49 51°13.694 2°55.738 51.6 0.7 20 -999
2011-01-20 09:19:54 51°13.695 2°55.739 48.5 0.7 23 -999
2011-01-20 09:19:59 51°13.696 2°55.739 45.1 0.9 19 -999
2011-01-20 09:20:04 51°13.698 2°55.74 41.7 0.9 19 -999
2011-01-20 09:20:08 51°13.699 2°55.74 38.2 1 14 -999
2011-01-20 09:20:14 51°13.7 2°55.741 34.7 0.8 6 -999
2011-01-20 09:20:18 51°13.701 2°55.74 32 0.4 332 -999
2011-01-20 09:20:24 51°13.7 2°55.739 29.4 0.5 260 -999
2011-01-20 09:20:29 51°13.699 2°55.737 26.5 0.9 237 -999
2011-01-20 09:20:34 51°13.698 2°55.735 24 1.3 223 -999
2011-01-20 09:20:38 51°13.697 2°55.733 21.8 1.7 219 -999
2011-01-20 09:20:44 51°13.694 2°55.731 19.7 1.9 213 -999
2011-01-20 09:20:49 51°13.692 2°55.728 17.4 1.8 213 6.8
2011-01-20 09:20:54 51°13.69 2°55.727 16.1 1.6 210 -999
2011-01-20 09:20:58 51°13.689 2°55.725 14.6 1.2 216 -999
2011-01-20 09:21:03 51°13.688 2°55.725 13 0.6 226 -999
2011-01-20 09:21:09 51°13.689 2°55.723 8.8 0.4 290 -999
2011-01-20 09:21:14 51°13.69 2°55.723 4.2 0.7 338 -999
2011-01-20 09:21:18 51°13.691 2°55.722 358.8 1.2 339 -999
2011-01-20 09:21:23 51°13.693 2°55.721 354.7 1.8 342 -999
2011-01-20 09:21:28 51°13.696 2°55.719 348.4 2.4 339 -999
2011-01-20 09:21:34 51°13.701 2°55.716 343.6 3 338 -999
2011-01-20 09:21:38 51°13.705 2°55.713 340.2 3.8 337 -999
2011-01-20 09:21:43 51°13.711 2°55.709 338.4 4.5 336 -999
2011-01-20 09:21:48 51°13.717 2°55.704 337.2 5.2 335 -999
2011-01-20 09:21:54 51°13.726 2°55.698 337.1 5.8 336 11
2011-01-20 09:21:58 51°13.733 2°55.693 337.1 6.2 336 10.5
2011-01-20 09:22:03 51°13.741 2°55.687 336.8 6.8 336 10.7
2011-01-20 09:22:08 51°13.75 2°55.681 336.5 7.2 336 10.4
2011-01-20 09:22:13 51°13.76 2°55.674 336.5 7.6 337 10.1
2011-01-20 09:22:18 51°13.771 2°55.667 336.5 8 337 10.3
2011-01-20 09:22:22 51°13.779 2°55.662 336.2 8.2 337 10.4
2011-01-20 09:22:27 51°13.79 2°55.655 336.2 8.4 337 10.3
2011-01-20 09:22:31 51°13.799 2°55.649 336.1 8.6 336 10.3
2011-01-20 09:22:36 51°13.81 2°55.641 335.4 8.8 336 10.3
2011-01-20 09:22:42 51°13.824 2°55.631 335.3 8.9 337 10.5
2011-01-20 09:22:46 51°13.833 2°55.625 335.4 9 336 10.2
2011-01-20 09:22:50 51°13.842 2°55.618 335.4 9.1 336 10.2
2011-01-20 09:22:55 51°13.854 2°55.61 335.7 9.2 337 10
2011-01-20 09:23:00 51°13.865 2°55.602 335.9 9.3 336 9.9
2011-01-20 09:23:05 51°13.877 2°55.594 336 9.3 337 10
2011-01-20 09:23:10 51°13.889 2°55.585 336.1 9.4 336 10.4
2011-01-20 09:23:16 51°13.904 2°55.576 336.5 9.5 337 -999
2011-01-20 09:23:21 51°13.916 2°55.567 336.2 9.5 336 -999
2011-01-20 09:23:27 51°13.93 2°55.557 336.1 9.6 337 -999
2011-01-20 09:23:33 51°13.945 2°55.547 336.3 9.6 335 -999
2011-01-20 09:23:38 51°13.957 2°55.539 335.7 9.6 336 -999
2011-01-20 09:23:43 51°13.969 2°55.53 335.5 9.6 335 -999
2011-01-20 09:23:48 51°13.981 2°55.521 335.3 9.6 336 -999
2011-01-20 09:23:54 51°13.996 2°55.51 335.3 9.6 336 -999
2011-01-20 09:23:58 51°14.006 2°55.503 335.2 9.6 336 -999
2011-01-20 09:24:03 51°14.018 2°55.495 335.2 9.6 336 -999
2011-01-20 09:24:08 51°14.03 2°55.486 335.4 9.6 336 -999
2011-01-20 09:24:14 51°14.045 2°55.476 335.7 9.6 336 -999
2011-01-20 09:24:18 51°14.054 2°55.469 335.4 9.6 335 -999
2011-01-20 09:24:24 51°14.069 2°55.458 335.3 9.6 336 -999
2011-01-20 09:24:29 51°14.081 2°55.449 335.3 9.7 335 -999
2011-01-20 09:24:34 51°14.093 2°55.44 335.2 9.7 335 -999
2011-01-20 09:24:38 51°14.103 2°55.433 334.7 9.8 335 -999
2011-01-20 09:24:44 51°14.118 2°55.422 334.7 9.8 335 -999
2011-01-20 09:24:48 51°14.128 2°55.414 334.2 9.8 333 10.3
2011-01-20 09:24:53 51°14.14 2°55.404 333.9 9.8 334 10.4
2011-01-20 09:24:58 51°14.152 2°55.395 333.7 9.8 333 10.6
2011-01-20 09:25:02 51°14.161 2°55.386 333.1 9.8 332 -999
2011-01-20 09:25:07 51°14.173 2°55.377 332.2 9.8 333 10.3
2011-01-20 09:25:13 51°14.188 2°55.364 331.8 9.8 331 10.3
2011-01-20 09:25:18 51°14.199 2°55.353 330.9 9.8 330 -999
2011-01-20 09:25:23 51°14.211 2°55.342 329.9 9.9 329 10.3
2011-01-20 09:25:29 51°14.226 2°55.329 329.1 9.9 330 -999
2011-01-20 09:25:34 51°14.237 2°55.318 329.1 9.9 329 -999
2011-01-20 09:25:38 51°14.247 2°55.308 328.5 9.9 328 10.6
2011-01-20 09:25:43 51°14.259 2°55.297 327.8 10 328 10.4
2011-01-20 09:25:48 51°14.27 2°55.285 327.4 9.9 328 10.4
2011-01-20 09:25:53 51°14.282 2°55.273 327.4 10 329 10.3
2011-01-20 09:25:58 51°14.294 2°55.261 327.6 10.1 327 10.3
2011-01-20 09:26:02 51°14.303 2°55.252 327.4 10.1 329 10.3
2011-01-20 09:26:07 51°14.315 2°55.24 327.5 10.2 328 10.2
2011-01-20 09:26:12 51°14.327 2°55.228 327.9 10.3 328 10.3
2011-01-20 09:26:17 51°14.34 2°55.216 328 10.4 328 10.3
2011-01-20 09:26:22 51°14.352 2°55.203 327.5 10.5 328 10.3
2011-01-20 09:26:26 51°14.362 2°55.193 327.1 10.6 328 10.3
2011-01-20 09:26:32 51°14.377 2°55.178 327 10.7 327 10.3
2011-01-20 09:26:37 51°14.39 2°55.165 327.2 10.8 327 10.3
2011-01-20 09:26:42 51°14.402 2°55.151 326.4 10.9 325 10.3
2011-01-20 09:26:46 51°14.412 2°55.139 325.2 11 325 10.4
2011-01-20 09:26:51 51°14.424 2°55.125 324.4 11.1 325 10.5
2011-01-20 09:26:56 51°14.437 2°55.111 324.5 11.1 326 11
2011-01-20 09:27:01 51°14.45 2°55.098 325.5 11.3 327 -999
2011-01-20 09:27:06 51°14.464 2°55.085 327.4 11.5 328 -999
2011-01-20 09:27:11 51°14.478 2°55.072 328.9 11.6 329 -999
2011-01-20 09:27:16 51°14.492 2°55.058 328.9 11.8 328 10.4
2011-01-20 09:27:22 51°14.508 2°55.041 328.1 11.7 327 11
2011-01-20 09:27:26 51°14.519 2°55.028 327.3 12 325 10.8
2011-01-20 09:27:30 51°14.53 2°55.016 326.3 12.1 324 11.4
2011-01-20 09:27:35 51°14.544 2°55 326 12.3 324 11.6
2011-01-20 09:27:40 51°14.558 2°54.984 327.3 12.5 325 11.8
2011-01-20 09:27:45 51°14.572 2°54.968 328.2 12.6 324 11.5
2011-01-20 09:27:50 51°14.586 2°54.952 328.9 12.6 325 11.8
2011-01-20 09:27:55 51°14.601 2°54.936 330.2 12.6 326 11.5
2011-01-20 09:28:00 51°14.616 2°54.921 330.6 12.7 328 11.9
2011-01-20 09:28:05 51°14.631 2°54.906 331 12.6 328 11.4
2011-01-20 09:28:10 51°14.646 2°54.893 332.8 12.6 331 11.6
2011-01-20 09:28:15 51°14.661 2°54.881 335.8 12.6 334 11.6
2011-01-20 09:28:20 51°14.677 2°54.869 338.3 12.5 335 11.3
2011-01-20 09:28:25 51°14.693 2°54.857 338.9 12.5 334 11.4
2011-01-20 09:28:30 51°14.708 2°54.844 338.3 12.5 334 11.7
2011-01-20 09:28:34 51°14.721 2°54.835 338.3 12.5 335 11.7
2011-01-20 09:28:40 51°14.74 2°54.821 339 12.5 335 11.6
2011-01-20 09:28:45 51°14.756 2°54.81 339.2 12.5 336 11.5
2011-01-20 09:28:50 51°14.772 2°54.799 339.8 12.5 336 11.6
2011-01-20 09:28:55 51°14.788 2°54.789 340.8 12.4 338 11.2
2011-01-20 09:29:00 51°14.804 2°54.78 342.1 12.3 340 11
2011-01-20 09:29:05 51°14.82 2°54.77 343 12.3 340 10.4
2011-01-20 09:29:10 51°14.836 2°54.762 343.8 12.3 341 10.5
2011-01-20 09:29:14 51°14.849 2°54.756 346.1 12.3 345 9.9
2011-01-20 09:29:20 51°14.869 2°54.75 349.1 12.1 349 9.5
2011-01-20 09:29:25 51°14.886 2°54.746 352.1 12 352 9.6
2011-01-20 09:29:30 51°14.902 2°54.743 354.5 12 353 9.7
2011-01-20 09:29:35 51°14.919 2°54.741 356.3 12 355 9.6
2011-01-20 09:29:40 51°14.936 2°54.739 358.3 12 357 9.6
2011-01-20 09:29:45 51°14.952 2°54.738 359.4 12 357 9.6
2011-01-20 09:29:50 51°14.969 2°54.735 359.4 12 356 9.6
2011-01-20 09:29:54 51°14.982 2°54.732 357.3 12 353 9.2
2011-01-20 09:30:00 51°15.002 2°54.727 355.6 12.1 350 9.6
2011-01-20 09:30:05 51°15.018 2°54.72 353 12.1 346 9
2011-01-20 09:30:10 51°15.034 2°54.713 349.3 12.1 344 9.2
2011-01-20 09:30:14 51°15.047 2°54.705 346.3 12.1 341 8.8
2011-01-20 09:30:20 51°15.066 2°54.694 343.8 12.1 339 8.7
2011-01-20 09:30:25 51°15.081 2°54.684 342.2 12.1 338 8.5
2011-01-20 09:30:30 51°15.097 2°54.673 340.5 12.2 336 8.5
2011-01-20 09:30:35 51°15.112 2°54.661 338.8 12.1 335 8.4
2011-01-20 09:30:40 51°15.127 2°54.649 337.7 12.2 334 8.7
2011-01-20 09:30:45 51°15.142 2°54.637 336.7 12.1 333 8.2
2011-01-20 09:30:50 51°15.157 2°54.625 335.7 12.1 333 9
2011-01-20 09:30:55 51°15.173 2°54.612 335.4 12.2 333 8.7
2011-01-20 09:31:00 51°15.188 2°54.6 335.8 12.3 334 8.7
2011-01-20 09:31:05 51°15.203 2°54.588 336.6 12.3 335 8.9
2011-01-20 09:31:10 51°15.218 2°54.577 337.6 12.3 336 9.1
2011-01-20 09:31:15 51°15.234 2°54.567 338.9 12.3 337 8.8
2011-01-20 09:31:20 51°15.25 2°54.556 339.3 12.4 337 9
2011-01-20 09:31:25 51°15.265 2°54.544 339.1 12.4 335 9
2011-01-20 09:31:30 51°15.281 2°54.532 338 12.4 334 9.2
2011-01-20 09:31:34 51°15.293 2°54.522 337 12.5 332 9.1
2011-01-20 09:31:40 51°15.311 2°54.505 334 12.6 329 9
2011-01-20 09:31:45 51°15.326 2°54.49 331.5 12.6 327 9.1
2011-01-20 09:31:50 51°15.34 2°54.474 329.7 12.6 325 9.2
2011-01-20 09:31:55 51°15.354 2°54.457 328.1 12.6 324 9.4
2011-01-20 09:32:00 51°15.368 2°54.44 327.2 12.7 323 9.3
2011-01-20 09:32:05 51°15.382 2°54.423 326.8 12.7 322 9.5
2011-01-20 09:32:10 51°15.396 2°54.406 326.4 12.7 323 9.1
2011-01-20 09:32:14 51°15.407 2°54.393 326.5 12.6 324 9.7
2011-01-20 09:32:20 51°15.425 2°54.374 327.8 12.7 326 9.4
2011-01-20 09:32:25 51°15.439 2°54.358 328.7 12.6 326 9.7
2011-01-20 09:32:30 51°15.454 2°54.343 329.5 12.5 327 9.8
2011-01-20 09:32:35 51°15.468 2°54.328 329.9 12.6 327 10.1
2011-01-20 09:32:40 51°15.483 2°54.312 330 12.6 326 10
2011-01-20 09:32:45 51°15.497 2°54.296 329.5 12.6 325 10
2011-01-20 09:32:50 51°15.511 2°54.281 328.8 12.6 325 10
2011-01-20 09:32:55 51°15.526 2°54.265 328.9 12.6 325 10.2
2011-01-20 09:33:00 51°15.54 2°54.249 328.5 12.5 326 10.1
2011-01-20 09:33:05 51°15.555 2°54.233 328.6 12.7 325 10.3
2011-01-20 09:33:10 51°15.569 2°54.217 328.4 12.6 325 10.2
2011-01-20 09:33:15 51°15.583 2°54.202 328.7 12.5 326 9.9
2011-01-20 09:33:20 51°15.597 2°54.186 328.7 12.5 325 10.6
2011-01-20 09:33:25 51°15.612 2°54.171 328.3 12.5 326 10.3
2011-01-20 09:33:30 51°15.626 2°54.155 328.3 12.6 325 10.4
2011-01-20 09:33:34 51°15.637 2°54.142 328.4 12.6 325 10.6
2011-01-20 09:33:40 51°15.654 2°54.123 328.8 12.5 325 10.3
2011-01-20 09:33:45 51°15.669 2°54.108 328.8 12.5 326 10.7
2011-01-20 09:33:50 51°15.683 2°54.092 328.9 12.6 325 10.6
2011-01-20 09:33:55 51°15.698 2°54.077 329.3 12.5 327 10.5
2011-01-20 09:34:00 51°15.712 2°54.061 329 12.5 326 10.8
2011-01-20 09:34:05 51°15.726 2°54.046 328.9 12.4 326 10.7
2011-01-20 09:34:10 51°15.74 2°54.03 328.9 12.5 325 11
2011-01-20 09:34:15 51°15.755 2°54.015 328.6 12.5 326 10.9
2011-01-20 09:34:20 51°15.769 2°53.998 328.5 12.6 325 10.9
2011-01-20 09:34:25 51°15.783 2°53.983 328.4 12.5 326 10.7
2011-01-20 09:34:30 51°15.798 2°53.967 328.6 12.6 326 11
2011-01-20 09:34:35 51°15.812 2°53.952 328.8 12.6 326 11.2
2011-01-20 09:34:40 51°15.827 2°53.936 329.1 12.6 325 11.1
2011-01-20 09:34:45 51°15.841 2°53.92 328.8 12.5 325 11
2011-01-20 09:34:50 51°15.855 2°53.904 328.5 12.5 325 11.2
2011-01-20 09:34:54 51°15.866 2°53.892 328.5 12.6 326 11.3
2011-01-20 09:35:00 51°15.884 2°53.873 328.7 12.6 326 11.2
2011-01-20 09:35:05 51°15.898 2°53.858 328.6 12.6 326 11.4
2011-01-20 09:35:10 51°15.912 2°53.842 329.1 12.6 325 11.1
2011-01-20 09:35:15 51°15.927 2°53.827 329 12.5 326 11.4
2011-01-20 09:35:20 51°15.941 2°53.811 328.9 12.4 325 11.2
2011-01-20 09:35:25 51°15.955 2°53.795 328.9 12.4 325 11.2
2011-01-20 09:35:30 51°15.969 2°53.78 328.6 12.4 326 11.6
2011-01-20 09:35:34 51°15.98 2°53.767 328.8 12.4 326 11.4
2011-01-20 09:35:40 51°15.997 2°53.749 329.1 12.4 326 11.4
2011-01-20 09:35:45 51°16.012 2°53.733 329 12.5 325 11.6
2011-01-20 09:35:50 51°16.026 2°53.717 328.2 12.5 324 11.3
2011-01-20 09:35:55 51°16.04 2°53.702 328.1 12.5 325 11.5
2011-01-20 09:36:00 51°16.054 2°53.685 327.5 12.5 324 11.5
2011-01-20 09:36:05 51°16.068 2°53.668 327.2 12.5 323 11.8
2011-01-20 09:36:10 51°16.082 2°53.652 326.7 12.5 323 11.5
2011-01-20 09:36:14 51°16.092 2°53.638 326.7 12.4 323 11.7
2011-01-20 09:36:20 51°16.109 2°53.618 326.7 12.6 323 11.8
2011-01-20 09:36:25 51°16.122 2°53.602 326.7 12.4 322 11.5
2011-01-20 09:36:30 51°16.136 2°53.585 326.4 12.4 323 12.1
2011-01-20 09:36:35 51°16.15 2°53.568 326.1 12.5 322 11.8
2011-01-20 09:36:40 51°16.164 2°53.551 326 12.5 322 11.9
2011-01-20 09:36:45 51°16.177 2°53.534 326.1 12.5 321 12
2011-01-20 09:36:50 51°16.191 2°53.517 326 12.5 322 11.8
2011-01-20 09:36:55 51°16.204 2°53.5 326 12.5 323 11.9
2011-01-20 09:37:00 51°16.218 2°53.483 326 12.5 323 12.1
2011-01-20 09:37:05 51°16.232 2°53.467 326.3 12.5 323 12.1
2011-01-20 09:37:10 51°16.246 2°53.45 326.7 12.5 323 12
2011-01-20 09:37:15 51°16.26 2°53.434 326.9 12.5 323 12.2
2011-01-20 09:37:20 51°16.274 2°53.418 327 12.5 323 11.9
2011-01-20 09:37:25 51°16.288 2°53.401 327.3 12.4 323 11.8
2011-01-20 09:37:30 51°16.302 2°53.384 327.3 12.5 323 12.2
2011-01-20 09:37:34 51°16.313 2°53.371 327.1 12.4 323 12.1
2011-01-20 09:37:40 51°16.329 2°53.351 327 12.4 323 12.2
2011-01-20 09:37:45 51°16.343 2°53.335 326.9 12.5 323 12.4
2011-01-20 09:37:50 51°16.357 2°53.319 327.3 12.4 323 12.1
2011-01-20 09:37:55 51°16.371 2°53.302 327.6 12.3 323 12.3
2011-01-20 09:38:00 51°16.385 2°53.286 327.1 12.4 323 12.1
2011-01-20 09:38:05 51°16.398 2°53.269 327.2 12.4 323 12.1
2011-01-20 09:38:10 51°16.412 2°53.253 327.3 12.4 323 12
2011-01-20 09:38:15 51°16.426 2°53.237 328 12.2 325 12.3
2011-01-20 09:38:20 51°16.44 2°53.222 328.9 12.3 325 12.5
2011-01-20 09:38:25 51°16.454 2°53.206 329.3 12.4 326 12.5
2011-01-20 09:38:30 51°16.468 2°53.191 329.6 12.4 326 12.3
2011-01-20 09:38:35 51°16.482 2°53.176 329.6 12.3 326 11.9
2011-01-20 09:38:40 51°16.496 2°53.161 329.8 12.2 326 12.2
2011-01-20 09:38:45 51°16.51 2°53.146 329.9 12.2 326 12.2
2011-01-20 09:38:50 51°16.524 2°53.13 329.9 12.2 326 12.3
2011-01-20 09:38:54 51°16.535 2°53.118 329.9 12.3 326 12.2
2011-01-20 09:39:00 51°16.552 2°53.1 330 12.3 326 12.2
2011-01-20 09:39:05 51°16.566 2°53.084 329.7 12.3 325 12
2011-01-20 09:39:10 51°16.579 2°53.069 329.6 12.2 326 12.2
2011-01-20 09:39:15 51°16.593 2°53.053 329 12.3 325 12.3
2011-01-20 09:39:20 51°16.607 2°53.039 329.3 12.1 325 11.8
2011-01-20 09:39:25 51°16.621 2°53.024 329.1 12.1 326 12
2011-01-20 09:39:30 51°16.635 2°53.01 330.2 11.8 327 12.4
2011-01-20 09:39:34 51°16.646 2°52.998 331.3 11.9 327 12.1
2011-01-20 09:39:40 51°16.663 2°52.981 331.3 12 327 11.5
2011-01-20 09:39:45 51°16.677 2°52.967 331.8 11.8 328 11.4
2011-01-20 09:39:50 51°16.691 2°52.953 332.1 11.8 328 11.8
2011-01-20 09:39:55 51°16.705 2°52.94 332.4 12 329 11.3
2011-01-20 09:40:00 51°16.719 2°52.926 332.9 11.9 328 11.3
2011-01-20 09:40:05 51°16.734 2°52.912 332.3 12 328 11.4
2011-01-20 09:40:10 51°16.748 2°52.898 332.7 12 329 11
2011-01-20 09:40:14 51°16.759 2°52.887 332.8 12 328 11
2011-01-20 09:40:20 51°16.776 2°52.87 332.5 12 328 10.4
2011-01-20 09:40:25 51°16.79 2°52.855 332 12 328 10
2011-01-20 09:40:30 51°16.804 2°52.841 332 12 328 10
2011-01-20 09:40:35 51°16.818 2°52.827 332 11.9 328 9.9
2011-01-20 09:40:40 51°16.832 2°52.813 332.1 12 328 10.1
2011-01-20 09:40:45 51°16.846 2°52.799 332.5 11.9 329 9.9
2011-01-20 09:40:50 51°16.86 2°52.785 332.8 12 328 9.9
2011-01-20 09:40:54 51°16.872 2°52.775 333.1 11.9 329 9.8
2011-01-20 09:41:00 51°16.889 2°52.758 333.2 11.9 329 9.7
2011-01-20 09:41:05 51°16.903 2°52.745 333.5 11.9 329 9.8
2011-01-20 09:41:10 51°16.917 2°52.731 333.9 11.9 330 10.3
2011-01-20 09:41:15 51°16.932 2°52.718 334.4 12 330 10.1
2011-01-20 09:41:20 51°16.946 2°52.705 334.3 12 330 10
2011-01-20 09:41:25 51°16.961 2°52.692 334.4 12 330 10.1
2011-01-20 09:41:30 51°16.975 2°52.678 334.3 12.1 329 10.2
2011-01-20 09:41:34 51°16.986 2°52.668 334 12.2 329 10.3
2011-01-20 09:41:40 51°17.004 2°52.651 333.5 12.2 330 10.3
2011-01-20 09:41:45 51°17.019 2°52.638 334.2 12.2 330 10.3
2011-01-20 09:41:50 51°17.034 2°52.624 334.4 12.1 331 10.3
2011-01-20 09:41:55 51°17.05 2°52.611 335.1 12.1 331 9.8
2011-01-20 09:42:00 51°17.064 2°52.599 335.5 11.8 331 10.1
2011-01-20 09:42:05 51°17.079 2°52.586 335.4 11.9 332 10.1
2011-01-20 09:42:10 51°17.093 2°52.573 335.7 11.9 331 10.4
2011-01-20 09:42:15 51°17.108 2°52.561 335.5 11.9 332 10.3
2011-01-20 09:42:20 51°17.122 2°52.548 335.4 11.8 331 10
2011-01-20 09:42:25 51°17.136 2°52.535 335.1 12 331 10.5
2011-01-20 09:42:30 51°17.151 2°52.522 334.8 11.9 331 10
2011-01-20 09:42:35 51°17.165 2°52.509 335 11.9 331 10.5
2011-01-20 09:42:40 51°17.179 2°52.497 335.2 12 332 10.4
2011-01-20 09:42:45 51°17.194 2°52.484 335.1 12.1 331 10.8
2011-01-20 09:42:50 51°17.208 2°52.471 335.4 12 331 10.5
2011-01-20 09:42:54 51°17.22 2°52.461 335.1 12.1 331 10.7
2011-01-20 09:43:00 51°17.237 2°52.446 335.4 11.9 331 10.3
2011-01-20 09:43:05 51°17.251 2°52.433 335.3 11.9 331 10.7
2011-01-20 09:43:10 51°17.266 2°52.421 335.5 12 333 10.7
2011-01-20 09:43:15 51°17.28 2°52.408 335.9 12 331 10.8
2011-01-20 09:43:20 51°17.295 2°52.396 335.8 12 332 10.9
2011-01-20 09:43:25 51°17.31 2°52.383 335.8 12 331 10.7
2011-01-20 09:43:30 51°17.324 2°52.371 335.6 12 332 10.9
2011-01-20 09:43:35 51°17.339 2°52.358 335.4 12 332 11
2011-01-20 09:43:40 51°17.354 2°52.346 335.7 12 332 10.5
2011-01-20 09:43:45 51°17.368 2°52.332 335.8 12 331 11.2
2011-01-20 09:43:50 51°17.383 2°52.32 335.3 11.9 331 11.1
2011-01-20 09:43:55 51°17.397 2°52.306 335.1 11.9 331 11.1
2011-01-20 09:44:00 51°17.412 2°52.294 335.1 11.9 331 10.7
2011-01-20 09:44:05 51°17.426 2°52.281 335.3 11.9 331 11
2011-01-20 09:44:10 51°17.441 2°52.268 335.5 12 332 11.5
2011-01-20 09:44:14 51°17.453 2°52.258 335.8 11.9 332 10.9
2011-01-20 09:44:20 51°17.47 2°52.243 336 11.9 332 11.5
2011-01-20 09:44:25 51°17.484 2°52.231 336.1 12 332 12
2011-01-20 09:44:30 51°17.499 2°52.218 336.1 12.1 332 11.7
2011-01-20 09:44:35 51°17.514 2°52.206 335.8 12 332 11.9
2011-01-20 09:44:40 51°17.529 2°52.193 335.3 12 331 11.7
2011-01-20 09:44:45 51°17.543 2°52.18 334.8 12.1 331 12
2011-01-20 09:44:50 51°17.558 2°52.167 334.9 12.2 332 12
2011-01-20 09:44:54 51°17.57 2°52.157 335.3 12.2 332 11.8
2011-01-20 09:45:00 51°17.588 2°52.141 335.3 12.2 330 11.6
2011-01-20 09:45:05 51°17.602 2°52.127 334.9 12.2 329 11.8
2011-01-20 09:45:10 51°17.616 2°52.113 334 12.1 328 11.6
2011-01-20 09:45:15 51°17.631 2°52.099 333.5 12 329 12.2
2011-01-20 09:45:20 51°17.645 2°52.085 333.7 12.1 329 11.6
2011-01-20 09:45:25 51°17.659 2°52.072 334 12 329 11.6
2011-01-20 09:45:30 51°17.673 2°52.058 334.4 12.1 329 11.8
2011-01-20 09:45:34 51°17.685 2°52.047 334.6 12.1 329 11.3
2011-01-20 09:45:40 51°17.702 2°52.031 334.7 12 330 11.6
2011-01-20 09:45:45 51°17.716 2°52.017 335 12.1 330 11.5
2011-01-20 09:45:50 51°17.731 2°52.004 335.1 12.1 330 11
2011-01-20 09:45:55 51°17.745 2°51.992 335.4 12.1 331 10.9
2011-01-20 09:46:00 51°17.76 2°51.979 335.8 12 331 10.8
2011-01-20 09:46:05 51°17.775 2°51.966 336.2 12.1 332 10.9
2011-01-20 09:46:10 51°17.789 2°51.954 336.7 12 331 10.3
2011-01-20 09:46:14 51°17.801 2°51.944 336.5 11.9 330 11.1
2011-01-20 09:46:20 51°17.818 2°51.927 336.1 11.8 330 10.7
2011-01-20 09:46:25 51°17.832 2°51.915 335.7 11.9 331 11.1
2011-01-20 09:46:30 51°17.847 2°51.903 336.1 12 332 10.8
2011-01-20 09:46:35 51°17.862 2°51.89 336.2 11.9 332 11.1
2011-01-20 09:46:40 51°17.876 2°51.877 336.6 11.8 331 10.7
2011-01-20 09:46:45 51°17.89 2°51.865 336.1 11.8 331 10.9
2011-01-20 09:46:50 51°17.905 2°51.852 336 11.9 332 10.8
2011-01-20 09:46:55 51°17.92 2°51.84 336.4 11.9 332 11.2
2011-01-20 09:47:00 51°17.934 2°51.827 336.9 12 332 10.8
2011-01-20 09:47:05 51°17.949 2°51.816 336.9 12.1 334 11.2
2011-01-20 09:47:10 51°17.964 2°51.804 337.2 12.1 333 11.1
2011-01-20 09:47:15 51°17.979 2°51.792 337.6 12 333 11.3
2011-01-20 09:47:20 51°17.994 2°51.779 337.2 11.9 332 10.6
2011-01-20 09:47:25 51°18.008 2°51.767 336.8 11.9 332 11.2
2011-01-20 09:47:30 51°18.023 2°51.753 336.2 12 331 11.6
2011-01-20 09:47:34 51°18.035 2°51.742 335.6 12.1 330 11.1
2011-01-20 09:47:40 51°18.052 2°51.726 335.3 12.2 330 11.6
2011-01-20 09:47:45 51°18.067 2°51.714 335.4 11.9 331 11
2011-01-20 09:47:50 51°18.081 2°51.701 335.7 12 330 11.5
2011-01-20 09:47:55 51°18.096 2°51.688 335.4 12 331 11.5
2011-01-20 09:48:00 51°18.111 2°51.675 336.1 12.1 331 11.4
2011-01-20 09:48:05 51°18.125 2°51.663 336.6 12 333 11.7
2011-01-20 09:48:10 51°18.14 2°51.651 336.9 12 332 11.6
2011-01-20 09:48:15 51°18.155 2°51.639 337.5 12 333 11.8
2011-01-20 09:48:20 51°18.17 2°51.627 337.4 12.1 333 11.9
2011-01-20 09:48:25 51°18.185 2°51.614 337.6 12.1 332 11.9
2011-01-20 09:48:30 51°18.2 2°51.602 336.9 12.2 332 12
2011-01-20 09:48:35 51°18.215 2°51.589 336.3 12.1 332 12.2
2011-01-20 09:48:40 51°18.23 2°51.576 336.5 12.1 332 12
2011-01-20 09:48:45 51°18.244 2°51.563 336.4 12.1 331 12.4
2011-01-20 09:48:50 51°18.259 2°51.55 335.6 12 331 12.3
2011-01-20 09:48:55 51°18.274 2°51.536 335.5 12 330 13.1
2011-01-20 09:49:00 51°18.288 2°51.524 335.4 12 331 12.8
2011-01-20 09:49:05 51°18.302 2°51.51 335.6 12.1 331 12.8
2011-01-20 09:49:10 51°18.317 2°51.497 335.8 12.1 330 13.4
2011-01-20 09:49:15 51°18.331 2°51.483 335.4 12.2 330 12.8
2011-01-20 09:49:20 51°18.346 2°51.47 335.6 12.1 331 12.7
2011-01-20 09:49:25 51°18.361 2°51.457 335.8 12.1 330 13.4
2011-01-20 09:49:30 51°18.375 2°51.444 336.2 12.1 332 13.2
2011-01-20 09:49:34 51°18.387 2°51.434 336.2 12.1 332 13.2
2011-01-20 09:49:40 51°18.405 2°51.42 336.8 12.1 332 13.5
2011-01-20 09:49:45 51°18.42 2°51.407 336.7 12.1 331 13.3
2011-01-20 09:49:50 51°18.435 2°51.393 336.6 12.1 331 13.6
2011-01-20 09:49:55 51°18.449 2°51.379 336.4 12 329 14.1
2011-01-20 09:50:00 51°18.463 2°51.365 335.3 12.2 328 13.6
2011-01-20 09:50:05 51°18.477 2°51.351 334.9 12 327 13.9
2011-01-20 09:50:10 51°18.492 2°51.337 334.5 12 328 14.2
2011-01-20 09:50:14 51°18.503 2°51.325 335 12 328 14.1
2011-01-20 09:50:20 51°18.519 2°51.308 335.3 12 328 14.6
2011-01-20 09:50:25 51°18.533 2°51.294 335.4 12 329 14.3
2011-01-20 09:50:30 51°18.548 2°51.28 335.9 12.1 330 14.4
2011-01-20 09:50:35 51°18.563 2°51.269 336.7 12 332 14.5
2011-01-20 09:50:40 51°18.577 2°51.256 337.6 12 332 14.6
2011-01-20 09:50:45 51°18.592 2°51.243 337.9 12 331 14.3
2011-01-20 09:50:50 51°18.607 2°51.23 337.5 12 331 14.9
2011-01-20 09:50:54 51°18.618 2°51.219 337.2 12.1 331 14.5
2011-01-20 09:51:00 51°18.636 2°51.203 336.6 11.9 330 14.9
2011-01-20 09:51:05 51°18.65 2°51.189 336.2 12.1 329 15.2
2011-01-20 09:51:10 51°18.663 2°51.175 335.9 12 328 14.5
2011-01-20 09:51:15 51°18.678 2°51.162 335.5 11.9 330 14.9
2011-01-20 09:51:20 51°18.692 2°51.149 336.1 11.9 329 14.9
2011-01-20 09:51:25 51°18.706 2°51.136 336.2 12 330 15.3
2011-01-20 09:51:30 51°18.721 2°51.122 336.2 12 329 15.2
2011-01-20 09:51:35 51°18.735 2°51.108 336.1 12.1 329 15.5
2011-01-20 09:51:40 51°18.75 2°51.094 336 12.2 329 15.2
2011-01-20 09:51:45 51°18.764 2°51.081 335.7 12.2 330 15.6
2011-01-20 09:51:50 51°18.779 2°51.068 336.6 12.2 330 15.3
2011-01-20 09:51:55 51°18.794 2°51.055 336.9 12.2 331 14.9
2011-01-20 09:52:00 51°18.808 2°51.041 337.6 12 331 15.4
2011-01-20 09:52:05 51°18.823 2°51.029 337.9 12.1 332 15.8
2011-01-20 09:52:10 51°18.838 2°51.017 337.9 12 332 15.7
2011-01-20 09:52:14 51°18.85 2°51.007 338.9 12.1 333 15.5
2011-01-20 09:52:20 51°18.868 2°50.993 339 12.1 333 15.3
2011-01-20 09:52:25 51°18.883 2°50.98 339.3 12.1 333 15.6
2011-01-20 09:52:30 51°18.898 2°50.968 339 12.2 332 15.8
2011-01-20 09:52:35 51°18.913 2°50.955 339 12.2 332 15.2
2011-01-20 09:52:40 51°18.928 2°50.942 338.4 12.2 331 15.5
2011-01-20 09:52:45 51°18.942 2°50.928 338.1 12.2 330 15.5
2011-01-20 09:52:50 51°18.957 2°50.915 338 12.2 331 15.7
2011-01-20 09:52:54 51°18.969 2°50.904 338.1 12.3 331 15.6
2011-01-20 09:53:00 51°18.987 2°50.889 338.5 12.2 331 15.5
2011-01-20 09:53:05 51°19.002 2°50.876 338.6 12 331 15.4
2011-01-20 09:53:10 51°19.016 2°50.863 338.8 11.8 331 15.5
2011-01-20 09:53:14 51°19.028 2°50.853 338.6 11.9 331 15.6
2011-01-20 09:53:20 51°19.045 2°50.838 338.4 11.9 331 15.3
2011-01-20 09:53:25 51°19.059 2°50.826 338.3 11.9 332 15.6
2011-01-20 09:53:30 51°19.074 2°50.813 338.7 12 331 15.1
2011-01-20 09:53:35 51°19.088 2°50.799 338.3 11.7 331 16.3
2011-01-20 09:53:40 51°19.103 2°50.786 338 12 330 15.7
2011-01-20 09:53:45 51°19.117 2°50.772 337.7 12 330 15.4
2011-01-20 09:53:50 51°19.132 2°50.759 337.6 12.1 329 15.2
2011-01-20 09:53:54 51°19.143 2°50.748 337.5 12.1 330 15.1
2011-01-20 09:54:00 51°19.161 2°50.732 337.3 12.2 331 15
2011-01-20 09:54:05 51°19.176 2°50.718 337.9 12.3 330 15.5
2011-01-20 09:54:10 51°19.19 2°50.706 338.3 12 331 14.9
2011-01-20 09:54:15 51°19.205 2°50.693 338.7 12 331 15.1
2011-01-20 09:54:20 51°19.219 2°50.68 338.5 12 331 14.7
2011-01-20 09:54:25 51°19.234 2°50.668 338.5 12 331 14.8
2011-01-20 09:54:30 51°19.249 2°50.654 338.3 11.9 330 15.2
2011-01-20 09:54:34 51°19.261 2°50.645 338.3 12 332 14.3
2011-01-20 09:54:40 51°19.278 2°50.629 338.9 11.9 332 14.1
2011-01-20 09:54:45 51°19.293 2°50.617 338.9 12 332 14.6
2011-01-20 09:54:50 51°19.309 2°50.605 339.2 12 333 13.8
2011-01-20 09:54:55 51°19.324 2°50.593 339.4 12 334 14.1
2011-01-20 09:55:00 51°19.339 2°50.582 340.4 12 335 13.4
2011-01-20 09:55:05 51°19.354 2°50.572 340.2 12.1 337 13.5
2011-01-20 09:55:10 51°19.37 2°50.562 341 12 339 13.4
2011-01-20 09:55:14 51°19.382 2°50.555 342.3 12.2 339 13.4
2011-01-20 09:55:20 51°19.401 2°50.542 342.1 12.1 337 13.1
2011-01-20 09:55:25 51°19.416 2°50.531 341 12.1 336 13.3
2011-01-20 09:55:30 51°19.43 2°50.52 339.8 11.9 334 13.3
2011-01-20 09:55:35 51°19.445 2°50.509 338.6 11.9 335 13.1
2011-01-20 09:55:40 51°19.46 2°50.498 338.1 12 334 12.8
2011-01-20 09:55:45 51°19.475 2°50.486 337.9 11.9 335 13
2011-01-20 09:55:50 51°19.49 2°50.475 338.3 12 335 13
2011-01-20 09:55:54 51°19.502 2°50.466 338.2 12 334 12.9
2011-01-20 09:56:00 51°19.52 2°50.451 337.8 12.1 334 12.4
2011-01-20 09:56:05 51°19.534 2°50.44 337.5 11.8 334 11.6
2011-01-20 09:56:10 51°19.549 2°50.429 337.6 12 333 12.7
2011-01-20 09:56:15 51°19.564 2°50.417 337.4 12 333 12.5
2011-01-20 09:56:20 51°19.579 2°50.405 337.3 12.1 334 12.9
2011-01-20 09:56:25 51°19.594 2°50.393 337.5 12.1 334 12.8
2011-01-20 09:56:30 51°19.61 2°50.381 337.9 12.1 335 13.3
2011-01-20 09:56:34 51°19.622 2°50.372 338 12.2 335 12.7
2011-01-20 09:56:40 51°19.639 2°50.357 337.8 11.9 333 13.2
2011-01-20 09:56:45 51°19.654 2°50.345 336.9 12.1 332 13.8
2011-01-20 09:56:50 51°19.669 2°50.333 336.8 12 332 13.7
2011-01-20 09:56:55 51°19.684 2°50.321 336.9 12 333 13.9
2011-01-20 09:57:00 51°19.699 2°50.309 337.6 12.1 334 13.6
2011-01-20 09:57:05 51°19.714 2°50.296 337.3 12.2 333 14.3
2011-01-20 09:57:10 51°19.729 2°50.285 337.6 12.2 335 14.2
2011-01-20 09:57:14 51°19.741 2°50.276 337.7 12.2 333 14.7
2011-01-20 09:57:20 51°19.759 2°50.261 338.3 12.2 333 14.3
2011-01-20 09:57:26 51°19.776 2°50.245 337.3 11.9 330 14.1
2011-01-20 09:57:30 51°19.788 2°50.236 336.6 11.9 332 14.7
2011-01-20 09:57:35 51°19.802 2°50.223 336.9 11.9 332 14.5
2011-01-20 09:57:40 51°19.817 2°50.211 336.9 12 332 14.9
2011-01-20 09:57:45 51°19.832 2°50.198 336.9 12.1 332 14.9
2011-01-20 09:57:50 51°19.847 2°50.186 337.2 12.1 333 14.6
2011-01-20 09:57:54 51°19.859 2°50.176 337.4 12.2 333 14.9
2011-01-20 09:58:00 51°19.877 2°50.161 337.6 12.2 333 15.2
2011-01-20 09:58:05 51°19.892 2°50.148 337.7 12.2 333 15.3
2011-01-20 09:58:10 51°19.907 2°50.136 337.7 12.3 332 15.8
2011-01-20 09:58:15 51°19.922 2°50.124 337.6 12.3 333 15.5
2011-01-20 09:58:20 51°19.937 2°50.11 338 12.1 332 16.5
2011-01-20 09:58:25 51°19.952 2°50.097 337.8 12 332 16.1
2011-01-20 09:58:30 51°19.967 2°50.085 337.5 12 333 16.3
2011-01-20 09:58:34 51°19.978 2°50.075 337.6 12.1 332 16.8
2011-01-20 09:58:40 51°19.997 2°50.061 337.9 12 333 16.2
2011-01-20 09:58:45 51°20.011 2°50.048 338.1 12.1 332 16.6
2011-01-20 09:58:50 51°20.026 2°50.035 337.8 12.2 332 16.8
2011-01-20 09:58:55 51°20.041 2°50.023 337.9 12.2 332 17.5
2011-01-20 09:59:00 51°20.056 2°50.01 338 12.3 333 17.6
2011-01-20 09:59:05 51°20.071 2°49.997 338.1 12.3 333 17.7
2011-01-20 09:59:10 51°20.086 2°49.984 338.6 12.2 332 17.2
2011-01-20 09:59:14 51°20.098 2°49.974 338.2 12.2 332 17.8
2011-01-20 09:59:20 51°20.116 2°49.957 338.2 12.1 331 18.5
2011-01-20 09:59:25 51°20.13 2°49.944 337.6 12.1 330 18.4
2011-01-20 09:59:30 51°20.145 2°49.931 337.2 12 331 18.4
2011-01-20 09:59:35 51°20.159 2°49.918 337.5 12.1 331 18.9
2011-01-20 09:59:40 51°20.174 2°49.905 337.8 12.3 331 19.5
2011-01-20 09:59:45 51°20.189 2°49.892 337.8 12.1 330 19.1
2011-01-20 09:59:50 51°20.204 2°49.879 337.5 12.2 330 19.5
2011-01-20 09:59:55 51°20.218 2°49.866 337.6 12.2 331 19.5
2011-01-20 10:00:00 51°20.233 2°49.853 337.8 12.2 330 20.5
2011-01-20 10:00:05 51°20.247 2°49.841 338.3 12.2 330 20.4
2011-01-20 10:00:10 51°20.262 2°49.827 337.7 12.2 330 21
2011-01-20 10:00:15 51°20.277 2°49.814 337.9 12.2 330 20.3
2011-01-20 10:00:20 51°20.292 2°49.8 337.8 12.2 331 21
2011-01-20 10:00:25 51°20.307 2°49.787 337.9 12.2 331 21.3
2011-01-20 10:00:30 51°20.321 2°49.774 338.6 12.3 331 21.1
2011-01-20 10:00:34 51°20.333 2°49.763 338.3 12.2 330 21.6
2011-01-20 10:00:40 51°20.35 2°49.747 337.6 12.1 330 21.5
2011-01-20 10:00:45 51°20.365 2°49.733 338 12.2 331 22.3
2011-01-20 10:00:50 51°20.38 2°49.72 338.3 12.2 332 22.5
2011-01-20 10:00:55 51°20.395 2°49.708 339.3 12.3 333 22.8
2011-01-20 10:01:00 51°20.41 2°49.696 339.8 12.3 333 22.7
2011-01-20 10:01:05 51°20.426 2°49.683 340.3 12.3 334 23.3
2011-01-20 10:01:10 51°20.44 2°49.672 341 12.1 333 22.6
2011-01-20 10:01:14 51°20.452 2°49.663 340.8 12.2 334 23.3
2011-01-20 10:01:20 51°20.47 2°49.649 340.8 11.9 333 22.6
2011-01-20 10:01:25 51°20.485 2°49.637 340.6 11.9 333 23.9
2011-01-20 10:01:30 51°20.5 2°49.623 340.4 11.9 333 23.3
2011-01-20 10:01:35 51°20.515 2°49.611 340.2 12 333 23.3
2011-01-20 10:01:40 51°20.53 2°49.598 339.8 12.2 333 23.9
2011-01-20 10:01:45 51°20.545 2°49.586 340.3 12.1 334 23.5
2011-01-20 10:01:50 51°20.56 2°49.574 340.7 12.2 333 24
2011-01-20 10:01:55 51°20.575 2°49.563 340.5 12.3 334 23.6
2011-01-20 10:02:00 51°20.591 2°49.55 340.6 12.3 334 24
2011-01-20 10:02:05 51°20.606 2°49.538 340.7 12.3 333 23.6
2011-01-20 10:02:10 51°20.621 2°49.526 340.3 12.4 333 23.9
2011-01-20 10:02:15 51°20.636 2°49.514 340.3 12.4 333 23.9
2011-01-20 10:02:20 51°20.652 2°49.502 340.4 12.4 333 23.5
2011-01-20 10:02:25 51°20.667 2°49.49 340.4 12.4 333 23.8
2011-01-20 10:02:30 51°20.682 2°49.477 340 12.4 333 23.9
2011-01-20 10:02:35 51°20.698 2°49.464 340.3 12.5 333 23.8
2011-01-20 10:02:40 51°20.713 2°49.452 340.3 12.3 334 23.5
2011-01-20 10:02:45 51°20.728 2°49.441 340.6 12.2 335 23.6
2011-01-20 10:02:50 51°20.744 2°49.429 341.1 12.2 335 24.2
2011-01-20 10:02:55 51°20.759 2°49.419 341.9 12.1 337 23.7
2011-01-20 10:03:00 51°20.774 2°49.408 342.2 12.1 335 24.4
2011-01-20 10:03:05 51°20.789 2°49.397 341.9 12.1 335 23.8
2011-01-20 10:03:10 51°20.804 2°49.385 341.1 12.1 334 23.8
2011-01-20 10:03:15 51°20.82 2°49.373 340.4 12.2 334 24.1
2011-01-20 10:03:20 51°20.835 2°49.36 340.2 12.2 333 24.2
2011-01-20 10:03:25 51°20.85 2°49.348 339.9 12.1 333 24
2011-01-20 10:03:30 51°20.865 2°49.335 339.8 12.1 333 24.4
2011-01-20 10:03:35 51°20.879 2°49.324 340.4 12.1 333 23.5
2011-01-20 10:03:40 51°20.895 2°49.313 340.1 11.9 336 24
2011-01-20 10:03:45 51°20.91 2°49.302 341.1 12 336 24.1
2011-01-20 10:03:50 51°20.925 2°49.292 341.2 12 336 23.9
2011-01-20 10:03:55 51°20.94 2°49.281 341.2 12.1 336 23.5
2011-01-20 10:04:00 51°20.955 2°49.27 341.4 12 336 23.1
2011-01-20 10:04:05 51°20.971 2°49.259 341.2 12.1 335 23.7
2011-01-20 10:04:10 51°20.985 2°49.248 341.2 11.9 335 23
2011-01-20 10:04:14 51°20.997 2°49.238 340.5 11.9 333 24.1
2011-01-20 10:04:20 51°21.015 2°49.224 339.8 11.8 333 22.9
2011-01-20 10:04:25 51°21.029 2°49.212 338.9 11.8 334 23.7
2011-01-20 10:04:30 51°21.044 2°49.201 339.1 11.9 333 23.6
2011-01-20 10:04:35 51°21.059 2°49.189 338.8 12 333 22.8
2011-01-20 10:04:40 51°21.074 2°49.177 338.4 11.9 334 22.8
2011-01-20 10:04:45 51°21.089 2°49.166 338.7 12 334 23.4
2011-01-20 10:04:50 51°21.104 2°49.154 338.8 12 334 23.4
2011-01-20 10:04:54 51°21.115 2°49.144 339.2 12.1 333 23.4
2011-01-20 10:05:00 51°21.133 2°49.13 338.7 12 334 22.6
2011-01-20 10:05:05 51°21.148 2°49.119 338.7 12 335 22.7
2011-01-20 10:05:10 51°21.163 2°49.108 339.6 12 336 22.7
2011-01-20 10:05:15 51°21.178 2°49.096 339.7 11.9 334 23.2
2011-01-20 10:05:20 51°21.193 2°49.084 339.6 12.1 334 23.4
2011-01-20 10:05:25 51°21.208 2°49.072 339.1 12.1 334 23
2011-01-20 10:05:30 51°21.223 2°49.06 338.9 12.1 333 22.8
2011-01-20 10:05:34 51°21.235 2°49.051 339 12 334 22.2
2011-01-20 10:05:40 51°21.253 2°49.038 339.1 12 335 22.4
2011-01-20 10:05:45 51°21.268 2°49.027 339.8 12 335 22.1
2011-01-20 10:05:50 51°21.284 2°49.015 339.5 12.1 333 21.8
2011-01-20 10:05:55 51°21.299 2°49.003 339 12.2 333 21.3
2011-01-20 10:06:00 51°21.314 2°48.99 338.7 12.2 333 21.4
2011-01-20 10:06:05 51°21.329 2°48.979 338.5 12.1 333 20.9
2011-01-20 10:06:10 51°21.344 2°48.966 338.7 12.1 333 21.4
2011-01-20 10:06:14 51°21.356 2°48.956 338.7 12.2 332 20.8
2011-01-20 10:06:20 51°21.373 2°48.941 338.3 11.9 332 21.4
2011-01-20 10:06:25 51°21.388 2°48.928 337.7 12 332 22.3
2011-01-20 10:06:30 51°21.403 2°48.916 338 12.1 333 21.8
2011-01-20 10:06:35 51°21.417 2°48.904 338 12 333 21.8
2011-01-20 10:06:40 51°21.432 2°48.891 338.7 12.1 332 23.1
2011-01-20 10:06:45 51°21.447 2°48.88 338.7 12 334 22.5
2011-01-20 10:06:50 51°21.462 2°48.868 339 12.1 333 22
2011-01-20 10:06:55 51°21.477 2°48.856 338.6 12 334 22.9
2011-01-20 10:07:00 51°21.492 2°48.844 339.1 12.2 334 23.1
2011-01-20 10:07:05 51°21.508 2°48.832 339.4 12.2 334 23.3
2011-01-20 10:07:10 51°21.523 2°48.821 339.8 12.3 335 23.4
2011-01-20 10:07:15 51°21.538 2°48.809 339.4 12.2 335 23.8
2011-01-20 10:07:20 51°21.554 2°48.798 339.7 12.3 336 24.2
2011-01-20 10:07:25 51°21.569 2°48.786 340.1 12.3 335 24.1
2011-01-20 10:07:30 51°21.585 2°48.776 340.1 12.2 337 23.7
2011-01-20 10:07:34 51°21.597 2°48.766 339.3 12.1 334 24
2011-01-20 10:07:40 51°21.615 2°48.752 339.6 12.1 334 24.3
2011-01-20 10:07:45 51°21.63 2°48.741 339.1 12.2 335 24.8
2011-01-20 10:07:50 51°21.645 2°48.728 339.3 12.1 333 24.5
2011-01-20 10:07:55 51°21.659 2°48.716 338.6 11.9 332 23.9
2011-01-20 10:08:00 51°21.674 2°48.705 338 11.9 334 24.7
2011-01-20 10:08:05 51°21.689 2°48.693 338.3 11.9 333 24.1
2011-01-20 10:08:10 51°21.704 2°48.681 339 12 334 24.4
2011-01-20 10:08:14 51°21.716 2°48.672 339.2 12 335 25.1
2011-01-20 10:08:20 51°21.734 2°48.659 339.6 12.1 335 24.4
2011-01-20 10:08:25 51°21.75 2°48.648 339.5 12.1 337 24.7
2011-01-20 10:08:30 51°21.765 2°48.638 340.5 12.1 337 24.2
2011-01-20 10:08:35 51°21.781 2°48.627 341.2 12.1 337 24.4
2011-01-20 10:08:40 51°21.796 2°48.616 340.5 12.1 336 23.9
2011-01-20 10:08:45 51°21.811 2°48.606 340.3 12 336 24.4
2011-01-20 10:08:50 51°21.827 2°48.595 340.1 12.2 336 24.9
2011-01-20 10:08:55 51°21.842 2°48.584 340.4 12.1 336 25.2
2011-01-20 10:09:00 51°21.858 2°48.573 340 11.9 335 24.5
2011-01-20 10:09:05 51°21.873 2°48.562 339.4 12 335 25.3
2011-01-20 10:09:10 51°21.888 2°48.551 338.9 12.1 336 24.8
2011-01-20 10:09:15 51°21.903 2°48.54 339.2 12 336 24.8
2011-01-20 10:09:20 51°21.918 2°48.528 339.3 12.1 335 24.7
2011-01-20 10:09:25 51°21.934 2°48.517 339 12.2 335 24.3
2011-01-20 10:09:30 51°21.949 2°48.505 338.5 12.2 335 24.2
2011-01-20 10:09:35 51°21.964 2°48.494 338.8 12.3 334 25
2011-01-20 10:09:40 51°21.98 2°48.483 339.4 12.3 336 24.7
2011-01-20 10:09:45 51°21.995 2°48.471 339.2 12.3 335 24.6
2011-01-20 10:09:50 51°22.011 2°48.46 339.3 12.2 336 25
2011-01-20 10:09:55 51°22.026 2°48.448 339.3 12 335 24.6
2011-01-20 10:10:00 51°22.041 2°48.436 338.8 12.1 333 24.9
2011-01-20 10:10:05 51°22.056 2°48.424 338.9 12.1 334 25
2011-01-20 10:10:10 51°22.071 2°48.413 338.2 12.2 334 25
2011-01-20 10:10:15 51°22.086 2°48.401 337.9 12.1 334 24.6
2011-01-20 10:10:20 51°22.102 2°48.389 338.5 12.2 335 25.2
2011-01-20 10:10:25 51°22.117 2°48.378 338.8 12.1 336 24.8
2011-01-20 10:10:30 51°22.132 2°48.366 339.1 12.1 334 25.4
2011-01-20 10:10:34 51°22.144 2°48.357 339.3 12.2 334 24.8
2011-01-20 10:10:40 51°22.162 2°48.343 339.5 12.3 333 25.4
2011-01-20 10:10:45 51°22.177 2°48.332 339 11.8 335 23.9
2011-01-20 10:10:50 51°22.192 2°48.32 338.8 11.9 333 24.9
2011-01-20 10:10:55 51°22.207 2°48.309 339 11.9 335 24.8
2011-01-20 10:11:00 51°22.222 2°48.298 339 12 335 25
2011-01-20 10:11:05 51°22.237 2°48.286 339.3 12 334 24.4
2011-01-20 10:11:10 51°22.252 2°48.275 338.7 12 335 23.8
2011-01-20 10:11:14 51°22.264 2°48.266 339.5 12.2 334 22.6
2011-01-20 10:11:20 51°22.283 2°48.252 339 12.2 334 22.1
2011-01-20 10:11:25 51°22.298 2°48.24 338.9 12.2 334 21.8
2011-01-20 10:11:30 51°22.312 2°48.227 338.2 12.2 332 20.8
2011-01-20 10:11:35 51°22.327 2°48.215 338.2 11.7 333 22.3
2011-01-20 10:11:40 51°22.342 2°48.203 337.7 11.9 333 22.4
2011-01-20 10:11:45 51°22.356 2°48.191 338.5 11.9 332 20.8
2011-01-20 10:11:50 51°22.371 2°48.179 338.1 12 333 19.6
2011-01-20 10:11:54 51°22.383 2°48.17 338.3 12 334 17.1
2011-01-20 10:12:00 51°22.4 2°48.155 338.7 11.8 333 14.7
2011-01-20 10:12:05 51°22.415 2°48.144 339 11.9 334 17.3
2011-01-20 10:12:10 51°22.43 2°48.132 338.7 11.8 333 18.9
2011-01-20 10:12:15 51°22.444 2°48.12 339.3 11.9 334 18.4
2011-01-20 10:12:20 51°22.459 2°48.11 339.2 11.7 335 18.3
2011-01-20 10:12:25 51°22.474 2°48.099 340.5 11.8 334 19.4
2011-01-20 10:12:30 51°22.489 2°48.088 340.1 11.8 336 19.1
2011-01-20 10:12:35 51°22.503 2°48.077 339.8 11.8 334 18.5
2011-01-20 10:12:40 51°22.518 2°48.065 339.9 11.7 335 19.2
2011-01-20 10:12:45 51°22.532 2°48.054 339.9 11.7 334 18.4
2011-01-20 10:12:50 51°22.547 2°48.042 339.4 11.6 334 19.3
2011-01-20 10:12:55 51°22.561 2°48.031 339 11.7 334 18.2
2011-01-20 10:13:00 51°22.576 2°48.02 339.2 11.7 334 16.5
2011-01-20 10:13:05 51°22.591 2°48.007 339.5 11.8 332 18.1
2011-01-20 10:13:10 51°22.605 2°47.996 339 11.8 333 18.3
2011-01-20 10:13:15 51°22.619 2°47.984 338.7 11.5 332 19.2
2011-01-20 10:13:20 51°22.634 2°47.972 338.3 11.7 334 18.7
2011-01-20 10:13:25 51°22.649 2°47.961 339.3 11.6 334 15.9
2011-01-20 10:13:30 51°22.663 2°47.949 339 11.6 333 17.1
2011-01-20 10:13:34 51°22.675 2°47.94 338.9 11.8 334 19.2
2011-01-20 10:13:40 51°22.692 2°47.926 339.1 11.9 333 20.3
2011-01-20 10:13:45 51°22.707 2°47.915 339.2 11.9 335 20.6
2011-01-20 10:13:50 51°22.722 2°47.903 339.4 11.9 333 20.2
2011-01-20 10:13:55 51°22.736 2°47.891 338.5 11.8 332 20.4
2011-01-20 10:14:00 51°22.75 2°47.878 337.9 11.6 331 21
2011-01-20 10:14:05 51°22.764 2°47.866 337 11.6 332 19.9
2011-01-20 10:14:10 51°22.778 2°47.855 338.3 11.5 334 20
2011-01-20 10:14:14 51°22.79 2°47.846 338.8 11.7 335 19.6
2011-01-20 10:14:20 51°22.808 2°47.833 339.4 11.8 335 19.3
2011-01-20 10:14:25 51°22.823 2°47.822 339.5 11.9 335 18.9
2011-01-20 10:14:30 51°22.837 2°47.81 339.8 11.9 333 16.2
2011-01-20 10:14:35 51°22.852 2°47.797 338.6 11.9 332 18
2011-01-20 10:14:40 51°22.866 2°47.785 337.8 12 333 19
2011-01-20 10:14:45 51°22.881 2°47.773 338.3 12 333 20.3
2011-01-20 10:14:50 51°22.896 2°47.761 338.6 12.1 334 20.2
2011-01-20 10:14:54 51°22.908 2°47.752 338.8 12.1 335 20.2
2011-01-20 10:15:00 51°22.926 2°47.739 340.3 12 335 20
2011-01-20 10:15:05 51°22.942 2°47.728 340.3 12.1 335 20.8
2011-01-20 10:15:10 51°22.957 2°47.716 340 12.1 335 20.6
2011-01-20 10:15:15 51°22.972 2°47.705 339.9 12.2 336 20.6
2011-01-20 10:15:20 51°22.987 2°47.693 339.7 12.2 333 20.2
2011-01-20 10:15:25 51°23.003 2°47.682 339 12.1 335 20.8
2011-01-20 10:15:30 51°23.018 2°47.669 339.2 12.2 334 21.6
2011-01-20 10:15:35 51°23.033 2°47.658 339 12.2 334 21.8
2011-01-20 10:15:40 51°23.048 2°47.646 339.2 12.2 334 22.1
2011-01-20 10:15:45 51°23.064 2°47.635 339.1 12.2 335 22
2011-01-20 10:15:50 51°23.079 2°47.622 339.3 12.4 333 21.4
2011-01-20 10:15:55 51°23.094 2°47.611 339.7 12.3 335 18.7
2011-01-20 10:16:00 51°23.109 2°47.599 338.9 12.1 334 20
2011-01-20 10:16:05 51°23.125 2°47.588 339.1 12.1 335 21.8
2011-01-20 10:16:10 51°23.14 2°47.576 339.9 12.1 334 21.9
2011-01-20 10:16:14 51°23.152 2°47.567 339.8 12.2 334 22
2011-01-20 10:16:20 51°23.17 2°47.553 339.1 12.2 335 21.3
2011-01-20 10:16:25 51°23.186 2°47.543 340.3 12.1 336 20.2
2011-01-20 10:16:30 51°23.201 2°47.531 340.6 12.1 334 20.3
2011-01-20 10:16:35 51°23.216 2°47.52 340.4 12.1 335 20.5
2011-01-20 10:16:40 51°23.231 2°47.508 339.8 12.2 335 20.8
2011-01-20 10:16:45 51°23.247 2°47.497 339.8 12.3 335 21.3
2011-01-20 10:16:50 51°23.262 2°47.485 339.8 12.1 335 21.5
2011-01-20 10:16:54 51°23.274 2°47.476 339.5 12.2 334 22
2011-01-20 10:17:00 51°23.292 2°47.462 339 12.2 335 22.5
2011-01-20 10:17:05 51°23.308 2°47.452 340.1 12.1 337 22.9
2011-01-20 10:17:10 51°23.323 2°47.441 340.5 12.1 336 22.9
2011-01-20 10:17:15 51°23.338 2°47.429 340.5 12 336 23.5
2011-01-20 10:17:20 51°23.354 2°47.418 340.6 12.1 336 23.7
2011-01-20 10:17:25 51°23.369 2°47.407 339.7 12.1 335 23.1
2011-01-20 10:17:30 51°23.384 2°47.396 339.8 12.1 335 23.2
2011-01-20 10:17:35 51°23.4 2°47.385 340.3 12.1 336 22.7
2011-01-20 10:17:40 51°23.415 2°47.373 340 12.2 335 21.9
2011-01-20 10:17:45 51°23.43 2°47.361 340 11.9 334 19.4
2011-01-20 10:17:50 51°23.445 2°47.35 338.5 12 334 17.5
2011-01-20 10:17:55 51°23.46 2°47.338 338.5 12.2 334 17.5
2011-01-20 10:18:00 51°23.474 2°47.326 338.6 11.9 334 18.5
2011-01-20 10:18:05 51°23.49 2°47.314 338.8 12 334 21.4
2011-01-20 10:18:10 51°23.504 2°47.303 339.7 11.8 334 21.4
2011-01-20 10:18:15 51°23.519 2°47.291 338.9 11.7 333 23.1
2011-01-20 10:18:20 51°23.534 2°47.28 338.5 11.8 335 23.6
2011-01-20 10:18:25 51°23.548 2°47.268 338.8 12 334 24.7
2011-01-20 10:18:30 51°23.564 2°47.257 339 12.1 335 24.3
2011-01-20 10:18:34 51°23.576 2°47.248 339.4 12.2 335 24.7
2011-01-20 10:18:40 51°23.594 2°47.234 338.9 12.2 335 25
2011-01-20 10:18:45 51°23.609 2°47.222 339 12.2 335 25.3
2011-01-20 10:18:50 51°23.625 2°47.211 339.4 12.2 335 25.6
2011-01-20 10:18:55 51°23.64 2°47.199 339 12.3 335 25.5
2011-01-20 10:19:00 51°23.656 2°47.188 339.5 12.3 336 25.7
2011-01-20 10:19:05 51°23.672 2°47.177 340 12.2 336 25.7
2011-01-20 10:19:10 51°23.687 2°47.166 340 12.1 336 25.2
2011-01-20 10:19:14 51°23.699 2°47.156 339.8 12.2 334 26
2011-01-20 10:19:20 51°23.717 2°47.143 339.5 12.1 335 26
2011-01-20 10:19:25 51°23.733 2°47.132 339.5 12.1 335 26.9
2011-01-20 10:19:30 51°23.747 2°47.12 339.2 12.1 334 26.6
2011-01-20 10:19:35 51°23.763 2°47.109 339.2 12.2 335 27.1
2011-01-20 10:19:40 51°23.778 2°47.097 339.6 12.1 335 27.1
2011-01-20 10:19:45 51°23.793 2°47.086 339.9 12.1 336 26.8
2011-01-20 10:19:50 51°23.809 2°47.075 339.8 12.3 335 26.7
2011-01-20 10:19:55 51°23.824 2°47.063 339.4 12.3 334 25.6
2011-01-20 10:20:00 51°23.839 2°47.051 339.3 12 334 26.5
2011-01-20 10:20:05 51°23.854 2°47.039 339 12.2 333 26.1
2011-01-20 10:20:10 51°23.869 2°47.027 338.3 12.1 334 26.4
2011-01-20 10:20:15 51°23.884 2°47.016 339.5 12.1 335 26.6
2011-01-20 10:20:20 51°23.899 2°47.004 339.6 12.2 335 26.3
2011-01-20 10:20:25 51°23.915 2°46.993 339.2 12.3 336 26.8
2011-01-20 10:20:30 51°23.93 2°46.981 339.4 12.3 335 27.2
2011-01-20 10:20:35 51°23.946 2°46.97 340 12.2 335 27.8
2011-01-20 10:20:40 51°23.96 2°46.958 339.8 12 332 27
2011-01-20 10:20:45 51°23.975 2°46.946 338.3 12 334 27.8
2011-01-20 10:20:50 51°23.99 2°46.935 338.3 12 335 29.1
2011-01-20 10:20:55 51°24.006 2°46.923 338.7 12.2 334 29.3
2011-01-20 10:21:00 51°24.02 2°46.911 339.3 12.1 334 29.7
2011-01-20 10:21:05 51°24.036 2°46.899 338.8 12.3 334 30.2
2011-01-20 10:21:10 51°24.051 2°46.887 339.2 12.2 334 29.4
2011-01-20 10:21:15 51°24.066 2°46.875 338.3 12.3 333 29.2
2011-01-20 10:21:20 51°24.081 2°46.863 338.3 12.2 333 29.6
2011-01-20 10:21:25 51°24.096 2°46.849 338.2 12.4 332 30.6
2011-01-20 10:21:30 51°24.111 2°46.837 338.3 12.2 333 30.1
2011-01-20 10:21:35 51°24.126 2°46.825 338.3 12.1 332 30
2011-01-20 10:21:40 51°24.141 2°46.813 338.5 12.1 333 29.7
2011-01-20 10:21:45 51°24.156 2°46.8 339 12.2 332 29.8
2011-01-20 10:21:50 51°24.17 2°46.788 338.6 12 333 28.5
2011-01-20 10:21:55 51°24.185 2°46.776 338.9 12 333 29.5
2011-01-20 10:22:00 51°24.2 2°46.763 338.8 12 333 29.4
2011-01-20 10:22:05 51°24.215 2°46.751 338.7 12 332 30
2011-01-20 10:22:10 51°24.23 2°46.739 338.5 12.1 333 29.4
2011-01-20 10:22:15 51°24.245 2°46.727 339 12.2 333 29
2011-01-20 10:22:20 51°24.26 2°46.715 339 12.1 334 28.4
2011-01-20 10:22:25 51°24.275 2°46.703 339.8 12.2 333 29.2
2011-01-20 10:22:30 51°24.291 2°46.691 339.8 12.1 334 29.6
2011-01-20 10:22:35 51°24.306 2°46.68 340.2 11.9 335 28.1
2011-01-20 10:22:41 51°24.323 2°46.667 340.1 11.7 336 28.1
2011-01-20 10:22:46 51°24.338 2°46.656 340.3 11.8 336 27.8
2011-01-20 10:22:50 51°24.35 2°46.647 340.1 11.7 335 28
2011-01-20 10:22:55 51°24.365 2°46.637 340.4 11.9 336 28.7
2011-01-20 10:23:00 51°24.38 2°46.626 340.2 11.7 335 29.4
2011-01-20 10:23:05 51°24.395 2°46.615 340.1 11.9 336 30.5
2011-01-20 10:23:10 51°24.41 2°46.604 340 11.9 335 30.5
2011-01-20 10:23:15 51°24.425 2°46.593 340.6 12 335 30.3
2011-01-20 10:23:20 51°24.44 2°46.581 339.8 12.2 334 30.8
2011-01-20 10:23:25 51°24.456 2°46.57 339.6 12 336 30.4
2011-01-20 10:23:30 51°24.471 2°46.558 339.8 12.1 334 31.1
2011-01-20 10:23:35 51°24.486 2°46.547 339.8 12.3 335 31.1
2011-01-20 10:23:40 51°24.501 2°46.535 339.9 12.1 334 30.5
2011-01-20 10:23:45 51°24.516 2°46.523 339.3 12.2 334 31
2011-01-20 10:23:50 51°24.532 2°46.512 339.6 12.1 335 29.5
2011-01-20 10:23:55 51°24.547 2°46.5 339.5 12.2 335 29.5
2011-01-20 10:24:00 51°24.562 2°46.489 339.5 12.1 336 29.8
2011-01-20 10:24:05 51°24.577 2°46.478 339.8 12.2 336 30.1
2011-01-20 10:24:10 51°24.593 2°46.467 340.3 12.2 336 30.6
2011-01-20 10:24:15 51°24.609 2°46.456 340.4 12.4 335 30.1
2011-01-20 10:24:20 51°24.624 2°46.444 339.8 12.2 334 30.3
2011-01-20 10:24:25 51°24.639 2°46.433 339 12 335 29.4
2011-01-20 10:24:30 51°24.654 2°46.421 338.6 12 334 29.2
2011-01-20 10:24:35 51°24.669 2°46.409 338.8 12.1 334 27.7
2011-01-20 10:24:40 51°24.684 2°46.399 338.9 12.1 336 28.1
2011-01-20 10:24:45 51°24.7 2°46.387 339.2 12.1 335 26.9
2011-01-20 10:24:50 51°24.715 2°46.376 339 12.2 335 26
2011-01-20 10:24:55 51°24.73 2°46.364 338.5 12 334 27.1
2011-01-20 10:25:00 51°24.745 2°46.353 338.9 12.1 335 28.1
2011-01-20 10:25:05 51°24.76 2°46.341 339 12 334 26.9
2011-01-20 10:25:10 51°24.775 2°46.33 338.7 12 335 26.6
2011-01-20 10:25:14 51°24.787 2°46.321 339.1 12 334 26.3
2011-01-20 10:25:20 51°24.805 2°46.308 339.1 12.1 336 26.3
2011-01-20 10:25:25 51°24.821 2°46.296 339.3 12.2 336 26.2
2011-01-20 10:25:30 51°24.836 2°46.285 339.4 12.1 334 25.8
2011-01-20 10:25:35 51°24.851 2°46.274 339.2 12 335 26.3
2011-01-20 10:25:40 51°24.866 2°46.263 339.5 12 335 26.2
2011-01-20 10:25:45 51°24.881 2°46.251 339 12.1 335 26.6
2011-01-20 10:25:50 51°24.897 2°46.241 339.7 12 336 25.8
2011-01-20 10:25:54 51°24.909 2°46.231 339.6 12.1 334 26.6
2011-01-20 10:26:00 51°24.927 2°46.218 339.1 12 336 26.6
2011-01-20 10:26:05 51°24.942 2°46.207 339.3 12 336 25.9
2011-01-20 10:26:10 51°24.957 2°46.196 339.8 12 336 25.6
2011-01-20 10:26:15 51°24.973 2°46.185 339.7 12 336 26.2
2011-01-20 10:26:20 51°24.988 2°46.174 339.8 12 336 27
2011-01-20 10:26:25 51°25.003 2°46.162 339.5 11.9 334 26.3
2011-01-20 10:26:30 51°25.017 2°46.151 338.9 11.7 334 25.9
2011-01-20 10:26:34 51°25.029 2°46.141 338.3 11.9 333 26.2
2011-01-20 10:26:40 51°25.047 2°46.127 338.7 11.9 334 27.1
2011-01-20 10:26:45 51°25.062 2°46.117 338.7 11.9 335 26
2011-01-20 10:26:50 51°25.078 2°46.106 339 12 337 25.4
2011-01-20 10:26:55 51°25.093 2°46.097 341.9 11.9 340 26
2011-01-20 10:27:00 51°25.109 2°46.089 343.5 12 342 27
2011-01-20 10:27:05 51°25.125 2°46.081 345.2 11.9 343 26.7
2011-01-20 10:27:10 51°25.141 2°46.073 347 11.9 343 25.5
2011-01-20 10:27:14 51°25.153 2°46.068 347.4 11.8 344 26.1
2011-01-20 10:27:20 51°25.172 2°46.06 348.5 11.8 346 28
2011-01-20 10:27:25 51°25.188 2°46.054 349.6 11.7 346 26.7
2011-01-20 10:27:30 51°25.204 2°46.048 349.8 11.8 347 25.6
2011-01-20 10:27:35 51°25.22 2°46.041 349.7 11.9 346 26.7
2011-01-20 10:27:40 51°25.236 2°46.035 350 12.1 346 27.1
2011-01-20 10:27:45 51°25.252 2°46.029 349.8 12 346 26.9
2011-01-20 10:27:50 51°25.268 2°46.022 350.4 12.1 347 27.1
2011-01-20 10:27:54 51°25.281 2°46.017 350.4 12.1 346 26.3
2011-01-20 10:28:00 51°25.301 2°46.01 350.2 12 347 26.3
2011-01-20 10:28:05 51°25.317 2°46.003 350.2 12 346 26.9
2011-01-20 10:28:10 51°25.333 2°45.998 350.3 12.1 348 26.6
2011-01-20 10:28:15 51°25.349 2°45.991 350.4 12 346 26.5
2011-01-20 10:28:20 51°25.366 2°45.986 350.3 11.9 348 25.1
2011-01-20 10:28:25 51°25.382 2°45.98 350.1 12 347 26
2011-01-20 10:28:30 51°25.398 2°45.974 350.6 11.9 347 25.9
2011-01-20 10:28:35 51°25.413 2°45.968 350.7 11.4 346 27.5
2011-01-20 10:28:40 51°25.429 2°45.962 350 11.6 346 27.3
2011-01-20 10:28:45 51°25.444 2°45.957 349.4 11.5 348 26.6
2011-01-20 10:28:50 51°25.461 2°45.952 350.3 11.7 349 24.9
2011-01-20 10:28:55 51°25.476 2°45.948 352.3 11.8 352 25.5
2011-01-20 10:29:00 51°25.493 2°45.946 355.1 11.6 356 26.9
2011-01-20 10:29:05 51°25.509 2°45.948 359.2 11.6 2 27
2011-01-20 10:29:10 51°25.525 2°45.949 3.3 11.8 2 26.4
2011-01-20 10:29:15 51°25.541 2°45.952 5.3 11.8 6 25.7
2011-01-20 10:29:20 51°25.556 2°45.955 7.6 11.4 8 24.8
2011-01-20 10:29:25 51°25.572 2°45.96 9.3 11.4 10 25.4
2011-01-20 10:29:30 51°25.588 2°45.965 10.8 11.5 12 25.6
2011-01-20 10:29:34 51°25.599 2°45.972 14.6 11.4 18 26.4
2011-01-20 10:29:40 51°25.617 2°45.983 17.9 11.4 20 25.8
2011-01-20 10:29:45 51°25.632 2°45.994 22 11.5 27 25.3
2011-01-20 10:29:50 51°25.645 2°46.008 26.9 11.4 32 26.1
2011-01-20 10:29:55 51°25.657 2°46.024 31.9 11.6 37 24.8
2011-01-20 10:30:00 51°25.668 2°46.043 38 11.5 47 24.9
2011-01-20 10:30:05 51°25.679 2°46.061 43.8 11.3 48 24.5
2011-01-20 10:30:10 51°25.689 2°46.082 46.3 11.2 51 26.4
2011-01-20 10:30:14 51°25.697 2°46.098 49.3 11.5 52 26.4
2011-01-20 10:30:20 51°25.708 2°46.122 50.9 11.4 54 24.5
2011-01-20 10:30:25 51°25.717 2°46.143 52.2 11.6 55 25.2
2011-01-20 10:30:30 51°25.726 2°46.165 52.9 11.6 55 26.6
2011-01-20 10:30:35 51°25.735 2°46.187 54.1 11.8 56 26.5
2011-01-20 10:30:40 51°25.744 2°46.209 54.6 11.9 57 26.5
2011-01-20 10:30:45 51°25.752 2°46.232 54.9 12 58 25.4
2011-01-20 10:30:50 51°25.761 2°46.254 55.3 12 57 24.3
2011-01-20 10:30:54 51°25.768 2°46.273 56 12.1 58 25.7
2011-01-20 10:31:00 51°25.779 2°46.301 55.9 12.1 58 26.7
2011-01-20 10:31:05 51°25.787 2°46.323 55.4 12 59 25.6
2011-01-20 10:31:10 51°25.796 2°46.346 55.7 11.9 60 25.8
2011-01-20 10:31:15 51°25.805 2°46.369 55.8 12 58 23.7
2011-01-20 10:31:20 51°25.813 2°46.391 55 12 60 24.4
2011-01-20 10:31:25 51°25.822 2°46.414 55.5 12 57 25
2011-01-20 10:31:30 51°25.831 2°46.436 55 11.9 58 24.7
2011-01-20 10:31:35 51°25.84 2°46.458 54.5 11.9 56 25.1
2011-01-20 10:31:40 51°25.849 2°46.48 54.1 12 57 26.3
2011-01-20 10:31:45 51°25.858 2°46.502 54.3 12.1 57 25.6
2011-01-20 10:31:50 51°25.868 2°46.525 54.4 12.1 57 24.9
2011-01-20 10:31:54 51°25.875 2°46.543 54.5 12 58 25.6
2011-01-20 10:32:00 51°25.885 2°46.57 55.1 12.1 58 25.8
2011-01-20 10:32:05 51°25.895 2°46.593 55.3 12.1 57 24.8
2011-01-20 10:32:10 51°25.903 2°46.616 55 12.1 58 24
2011-01-20 10:32:14 51°25.91 2°46.634 55.5 12.1 58 24.6
2011-01-20 10:32:20 51°25.921 2°46.662 55.3 12.1 58 23
2011-01-20 10:32:25 51°25.93 2°46.685 55.1 12.2 57 24.8
2011-01-20 10:32:30 51°25.938 2°46.708 55.1 12.1 59 25.6
2011-01-20 10:32:35 51°25.947 2°46.73 55.6 11.9 58 26.3
2011-01-20 10:32:40 51°25.956 2°46.753 55.5 12 59 25.5
2011-01-20 10:32:45 51°25.965 2°46.775 54.9 11.9 56 24.8
2011-01-20 10:32:50 51°25.974 2°46.797 54.4 12 58 26.1
2011-01-20 10:32:54 51°25.981 2°46.815 54.5 12 57 25.4
2011-01-20 10:33:00 51°25.991 2°46.843 54.8 12 59 25
2011-01-20 10:33:05 51°26 2°46.866 55.2 12.1 59 24.5
2011-01-20 10:33:10 51°26.009 2°46.888 55 12.1 58 25.6
2011-01-20 10:33:15 51°26.018 2°46.91 54.5 12 57 25.5
2011-01-20 10:33:20 51°26.027 2°46.933 55.2 12 58 25.2
2011-01-20 10:33:25 51°26.036 2°46.955 55 12.1 57 23.2
2011-01-20 10:33:30 51°26.044 2°46.978 55 12 59 25.7
2011-01-20 10:33:34 51°26.052 2°46.996 55.4 12.1 58 26.5
2011-01-20 10:33:40 51°26.062 2°47.024 55.1 12.1 59 25.6
2011-01-20 10:33:45 51°26.071 2°47.047 55.7 12 59 24.7
2011-01-20 10:33:50 51°26.079 2°47.07 56 11.9 60 23.2
2011-01-20 10:33:55 51°26.088 2°47.092 55.8 11.9 58 25.6
2011-01-20 10:34:00 51°26.097 2°47.115 56.1 12.2 58 26
2011-01-20 10:34:05 51°26.105 2°47.138 55.6 12.1 60 25.1
2011-01-20 10:34:10 51°26.113 2°47.16 55.6 11.8 60 23.6
2011-01-20 10:34:14 51°26.119 2°47.179 56.8 11.8 61 22.5
2011-01-20 10:34:20 51°26.129 2°47.206 57.1 12 59 26
2011-01-20 10:34:25 51°26.137 2°47.229 55.9 11.8 61 25.7
2011-01-20 10:34:30 51°26.145 2°47.252 56.5 11.7 61 25.6
2011-01-20 10:34:35 51°26.153 2°47.275 56.7 11.8 60 26.6
2011-01-20 10:34:40 51°26.161 2°47.298 57.2 11.9 60 26.7
2011-01-20 10:34:45 51°26.17 2°47.321 56.4 12 60 25.6
2011-01-20 10:34:50 51°26.178 2°47.344 56.7 12.2 60 23.8
2011-01-20 10:34:54 51°26.185 2°47.362 56.3 12 58 25.8
2011-01-20 10:35:00 51°26.195 2°47.39 56.7 12 59 26.3
2011-01-20 10:35:05 51°26.204 2°47.412 56.2 12 60 26.1
2011-01-20 10:35:10 51°26.213 2°47.435 55.9 11.9 57 24.4
2011-01-20 10:35:15 51°26.222 2°47.458 55.4 12 58 25.9
2011-01-20 10:35:20 51°26.231 2°47.48 55.2 12.1 58 26.2
2011-01-20 10:35:25 51°26.24 2°47.503 55.2 12.1 59 24
2011-01-20 10:35:30 51°26.249 2°47.526 55.7 12.2 58 21.2
2011-01-20 10:35:35 51°26.257 2°47.549 55.3 12.2 59 21.7
2011-01-20 10:35:40 51°26.266 2°47.572 56.4 12.1 59 23.4
2011-01-20 10:35:45 51°26.274 2°47.595 56.7 12.1 58 23.4
2011-01-20 10:35:50 51°26.283 2°47.618 56.3 12.1 59 24.4
2011-01-20 10:35:55 51°26.292 2°47.642 56.2 12.2 59 24.3
2011-01-20 10:36:00 51°26.3 2°47.665 56.3 12.1 59 25
2011-01-20 10:36:05 51°26.309 2°47.688 56.3 12.3 61 25.2
2011-01-20 10:36:10 51°26.318 2°47.711 56.2 12.2 59 21.6
2011-01-20 10:36:14 51°26.324 2°47.729 55.3 12.1 59 21.7
2011-01-20 10:36:20 51°26.335 2°47.756 55.7 11.7 58 22.5
2011-01-20 10:36:25 51°26.342 2°47.779 55.8 11.8 61 24
2011-01-20 10:36:30 51°26.351 2°47.801 56.3 11.7 59 24.4
2011-01-20 10:36:35 51°26.359 2°47.824 56.4 11.8 59 24.3
2011-01-20 10:36:40 51°26.368 2°47.846 55.7 11.8 58 24.2
2011-01-20 10:36:45 51°26.377 2°47.869 56 12 58 24.7
2011-01-20 10:36:50 51°26.385 2°47.892 55.4 12 58 25
2011-01-20 10:36:54 51°26.392 2°47.91 56 12 59 22.4
2011-01-20 10:37:00 51°26.403 2°47.937 56 12 58 22.2
2011-01-20 10:37:05 51°26.412 2°47.96 56 12.1 57 23.1
2011-01-20 10:37:10 51°26.42 2°47.983 55.9 12.2 60 23.3
2011-01-20 10:37:15 51°26.43 2°48.005 56 12.1 56 23
2011-01-20 10:37:20 51°26.438 2°48.028 55.5 12.1 59 23.7
2011-01-20 10:37:25 51°26.447 2°48.052 56 12.2 60 23.6
2011-01-20 10:37:30 51°26.454 2°48.074 56.3 11.9 60 23.5
2011-01-20 10:37:34 51°26.461 2°48.092 57.1 11.7 60 24.7
2011-01-20 10:37:40 51°26.471 2°48.12 56.6 11.9 59 24.3
2011-01-20 10:37:45 51°26.479 2°48.141 56.3 11.7 58 22.6
2011-01-20 10:37:50 51°26.488 2°48.164 56.4 11.8 60 23.2
2011-01-20 10:37:55 51°26.496 2°48.187 55.8 11.7 59 24.1
2011-01-20 10:38:00 51°26.504 2°48.21 56.3 12 59 24.8
2011-01-20 10:38:05 51°26.513 2°48.233 55.9 12 60 25.2
2011-01-20 10:38:10 51°26.521 2°48.256 56.2 12 61 25
2011-01-20 10:38:14 51°26.528 2°48.274 56.7 11.9 60 24
2011-01-20 10:38:20 51°26.538 2°48.302 57 12 60 23.5
2011-01-20 10:38:25 51°26.546 2°48.324 56.4 11.7 59 23.6
2011-01-20 10:38:30 51°26.554 2°48.347 56.2 11.6 61 24.5
2011-01-20 10:38:35 51°26.563 2°48.369 56.4 11.8 60 23.8
2011-01-20 10:38:40 51°26.571 2°48.393 56.4 12 60 23.7
2011-01-20 10:38:45 51°26.579 2°48.415 56.6 11.9 60 23.7
2011-01-20 10:38:50 51°26.587 2°48.438 56.8 11.7 60 24.3
2011-01-20 10:38:54 51°26.594 2°48.456 56.8 12 60 22
2011-01-20 10:39:00 51°26.604 2°48.484 56.7 12 59 23.8
2011-01-20 10:39:05 51°26.613 2°48.506 55.6 12 58 24.2
2011-01-20 10:39:10 51°26.622 2°48.529 55 12.1 57 23.8
2011-01-20 10:39:15 51°26.631 2°48.551 54.5 11.9 58 24.3
2011-01-20 10:39:20 51°26.64 2°48.573 53.8 12 56 24.4
2011-01-20 10:39:25 51°26.649 2°48.596 54 12 58 23.9
2011-01-20 10:39:30 51°26.658 2°48.618 54.2 12 57 24.1
2011-01-20 10:39:34 51°26.665 2°48.636 54.1 12 57 24.4